Time;durP1;ratioP1;P1;durP2;ratioP2;P2;SDS_P1;SDS_P2;PMS_P1;PMS_P2;Temp;Humidity;BMP_temperature;BMP_pressure;BME280_temperature;BME280_humidity;BME280_pressure;Samples;Min_cycle;Max_cycle;Signal;HPM_P1;HPM_P2
2024/03/25 00:01:40;;;;;;;;;;;5.80;99.90;;;;;;5054220;28;19951;-67
2024/03/25 00:04:06;;;;;;;;;;;5.80;99.90;;;;;;5054044;28;19905;-67
2024/03/25 00:06:33;;;;;;;;;;;5.70;99.90;;;;;;5053822;28;20001;-67
2024/03/25 00:09:02;;;;;;;;;;;5.70;99.90;;;;;;5053784;28;19908;-68
2024/03/25 00:11:27;;;;;;;;;;;5.70;99.90;;;;;;5054007;28;19912;-67
2024/03/25 00:13:53;;;;;;;;;;;5.60;99.90;;;;;;5053959;28;19905;-68
2024/03/25 00:16:18;;;;;;;;;;;5.60;99.90;;;;;;5052716;28;19904;-67
2024/03/25 00:18:44;;;;;;;;;;;5.50;99.90;;;;;;5053638;28;19912;-67
2024/03/25 00:21:09;;;;;;;;;;;5.50;99.90;;;;;;5053766;28;19962;-67
2024/03/25 00:23:34;;;;;;;;;;;5.50;99.90;;;;;;5053650;28;20448;-68
2024/03/25 00:26:00;;;;;;;;;;;5.40;99.90;;;;;;5053489;28;19908;-67
2024/03/25 00:28:25;;;;;;;;;;;5.40;99.90;;;;;;5053297;28;19920;-67
2024/03/25 00:30:51;;;;;;;;;;;5.50;99.90;;;;;;5053612;28;19905;-67
2024/03/25 00:33:16;;;;;;;;;;;5.50;99.90;;;;;;5053544;28;19909;-67
2024/03/25 00:35:42;;;;;;;;;;;5.50;99.90;;;;;;5053581;28;19943;-67
2024/03/25 00:38:08;;;;;;;;;;;5.50;99.90;;;;;;5053177;28;19905;-67
2024/03/25 00:40:34;;;;;;;;;;;5.60;99.90;;;;;;5053900;28;19908;-67
2024/03/25 00:42:59;;;;;;;;;;;5.60;99.90;;;;;;5053302;28;20326;-67
2024/03/25 00:45:30;;;;;;;;;;;5.60;99.90;;;;;;5053358;28;19959;-67
2024/03/25 00:47:59;;;;;;;;;;;5.70;99.90;;;;;;5052975;28;19912;-67
2024/03/25 00:50:25;;;;;;;;;;;5.60;99.90;;;;;;5053214;28;20005;-67
2024/03/25 00:52:51;;;;;;;;;;;5.60;99.90;;;;;;5053082;28;19924;-67
2024/03/25 00:55:16;;;;;;;;;;;5.60;99.90;;;;;;5053155;28;20273;-67
2024/03/25 00:57:42;;;;;;;;;;;5.60;99.90;;;;;;5052807;28;19958;-67
2024/03/25 01:00:08;;;;;;;;;;;5.50;99.90;;;;;;5053084;28;20447;-67
2024/03/25 01:02:33;;;;;;;;;;;5.40;99.90;;;;;;5052984;28;19905;-67
2024/03/25 01:04:59;;;;;;;;;;;5.40;99.90;;;;;;5052987;28;19915;-68
2024/03/25 01:07:25;;;;;;;;;;;5.40;99.90;;;;;;5052505;28;20021;-67
2024/03/25 01:09:50;;;;;;;;;;;5.30;99.90;;;;;;5052901;28;20533;-67
2024/03/25 01:12:16;;;;;;;;;;;5.30;99.90;;;;;;5052798;28;20323;-67
2024/03/25 01:14:41;;;;;;;;;;;5.30;99.90;;;;;;5052843;28;20445;-67
2024/03/25 01:17:07;;;;;;;;;;;5.20;99.90;;;;;;5052399;28;19919;-67
2024/03/25 01:19:33;;;;;;;;;;;5.30;99.90;;;;;;5052806;28;19905;-67
2024/03/25 01:21:58;;;;;;;;;;;5.20;99.90;;;;;;5052684;28;20260;-67
2024/03/25 01:24:25;;;;;;;;;;;5.30;99.90;;;;;;5052497;28;19904;-67
2024/03/25 01:26:51;;;;;;;;;;;5.20;99.90;;;;;;5052452;28;19905;-67
2024/03/25 01:29:17;;;;;;;;;;;5.40;99.90;;;;;;5052207;28;19916;-67
2024/03/25 01:31:42;;;;;;;;;;;5.10;99.90;;;;;;5052629;28;19905;-67
2024/03/25 01:34:07;;;;;;;;;;;5.10;99.90;;;;;;5052867;28;20318;-66
2024/03/25 01:36:34;;;;;;;;;;;5.00;99.90;;;;;;5052106;28;19999;-67
2024/03/25 01:38:59;;;;;;;;;;;5.00;99.90;;;;;;5052570;28;19904;-66
2024/03/25 01:41:25;;;;;;;;;;;4.90;99.90;;;;;;5052417;28;19904;-66
2024/03/25 01:43:50;;;;;;;;;;;4.90;99.90;;;;;;5052355;28;20289;-67
2024/03/25 01:46:20;;;;;;;;;;;4.90;99.90;;;;;;5052060;28;19958;-68
2024/03/25 01:48:47;;;;;;;;;;;4.90;99.90;;;;;;5052247;28;19962;-67
2024/03/25 01:51:14;;;;;;;;;;;4.90;99.90;;;;;;5052180;28;19912;-67
2024/03/25 01:53:39;;;;;;;;;;;4.90;99.90;;;;;;5052266;28;19955;-67
2024/03/25 01:56:05;;;;;;;;;;;4.80;99.90;;;;;;5051986;28;20368;-66
2024/03/25 01:58:31;;;;;;;;;;;4.90;99.90;;;;;;5052124;28;20372;-66
2024/03/25 02:00:59;;;;;;;;;;;4.70;99.90;;;;;;5052168;28;19912;-66
2024/03/25 02:03:25;;;;;;;;;;;4.90;99.90;;;;;;5052054;28;19912;-66
2024/03/25 02:05:52;;;;;;;;;;;4.90;99.90;;;;;;5051779;28;19905;-66
2024/03/25 02:08:18;;;;;;;;;;;5.00;99.90;;;;;;5052002;28;20003;-66
2024/03/25 02:10:44;;;;;;;;;;;5.00;99.90;;;;;;5052100;28;19905;-66
2024/03/25 02:13:09;;;;;;;;;;;5.00;99.90;;;;;;5052058;28;19905;-66
2024/03/25 02:15:35;;;;;;;;;;;5.00;99.90;;;;;;5051959;28;20387;-66
2024/03/25 02:18:00;;;;;;;;;;;5.00;99.90;;;;;;5051617;28;19974;-66
2024/03/25 02:20:26;;;;;;;;;;;5.00;99.90;;;;;;5051973;28;20021;-66
2024/03/25 02:22:51;;;;;;;;;;;4.90;99.90;;;;;;5051922;28;19905;-66
2024/03/25 02:25:17;;;;;;;;;;;4.90;99.90;;;;;;5052068;28;20348;-66
2024/03/25 02:27:42;;;;;;;;;;;4.90;99.90;;;;;;5051563;28;20007;-67
2024/03/25 02:30:10;;;;;;;;;;;4.90;99.90;;;;;;5051917;28;20343;-67
2024/03/25 02:32:36;;;;;;;;;;;4.90;99.90;;;;;;5051927;28;20018;-66
2024/03/25 02:35:06;;;;;;;;;;;4.80;99.90;;;;;;5051824;28;19905;-66
2024/03/25 02:37:32;;;;;;;;;;;4.80;99.90;;;;;;5051486;28;20265;-66
2024/03/25 02:39:58;;;;;;;;;;;4.80;99.90;;;;;;5052846;28;19905;-66
2024/03/25 02:42:28;;;;;;;;;;;4.80;99.90;;;;;;5055593;28;19904;-67
2024/03/25 02:44:54;;;;;;;;;;;4.80;99.90;;;;;;5055697;28;19954;-67
2024/03/25 02:47:20;;;;;;;;;;;4.80;99.90;;;;;;5055181;28;19952;-66
2024/03/25 02:49:46;;;;;;;;;;;4.80;99.90;;;;;;5055448;28;20276;-67
2024/03/25 02:52:11;;;;;;;;;;;4.80;99.90;;;;;;5055365;28;19951;-67
2024/03/25 02:54:37;;;;;;;;;;;4.80;99.90;;;;;;5055450;28;19999;-67
2024/03/25 02:57:02;;;;;;;;;;;4.80;99.90;;;;;;5055010;28;20570;-67
2024/03/25 02:59:28;;;;;;;;;;;4.70;99.90;;;;;;5055311;28;19911;-66
2024/03/25 03:01:53;;;;;;;;;;;4.70;99.90;;;;;;5055244;28;19904;-67
2024/03/25 03:04:19;;;;;;;;;;;4.70;99.90;;;;;;5055214;28;19921;-66
2024/03/25 03:06:44;;;;;;;;;;;4.80;99.90;;;;;;5054925;28;20384;-67
2024/03/25 03:09:10;;;;;;;;;;;4.80;99.90;;;;;;5054981;28;19908;-68
2024/03/25 03:11:35;;;;;;;;;;;4.80;99.90;;;;;;5055018;28;19908;-67
2024/03/25 03:14:01;;;;;;;;;;;4.80;99.90;;;;;;5055143;28;19995;-67
2024/03/25 03:16:26;;;;;;;;;;;4.90;99.90;;;;;;5054762;28;19927;-67
2024/03/25 03:18:52;;;;;;;;;;;5.00;99.90;;;;;;5054914;28;19908;-67
2024/03/25 03:21:17;;;;;;;;;;;5.00;99.90;;;;;;5054891;28;19905;-67
2024/03/25 03:23:43;;;;;;;;;;;5.00;99.90;;;;;;5054864;28;19911;-67
2024/03/25 03:26:08;;;;;;;;;;;4.90;99.90;;;;;;5054567;28;19908;-67
2024/03/25 03:28:34;;;;;;;;;;;4.80;99.90;;;;;;5054665;28;20008;-67
2024/03/25 03:30:59;;;;;;;;;;;4.70;99.90;;;;;;5054797;28;19905;-67
2024/03/25 03:33:25;;;;;;;;;;;4.70;99.90;;;;;;5054577;28;20288;-67
2024/03/25 03:35:51;;;;;;;;;;;4.70;99.90;;;;;;5054388;28;19905;-67
2024/03/25 03:38:17;;;;;;;;;;;4.70;99.90;;;;;;5054567;28;19912;-67
2024/03/25 03:40:44;;;;;;;;;;;4.60;99.90;;;;;;5054528;28;19905;-67
2024/03/25 03:43:10;;;;;;;;;;;4.60;99.90;;;;;;5054515;28;19912;-67
2024/03/25 03:45:35;;;;;;;;;;;4.60;99.90;;;;;;5054344;28;19909;-67
2024/03/25 03:48:01;;;;;;;;;;;4.60;99.90;;;;;;5054038;28;19999;-67
2024/03/25 03:50:26;;;;;;;;;;;4.60;99.90;;;;;;5054257;28;19908;-67
2024/03/25 03:52:52;;;;;;;;;;;4.50;99.90;;;;;;5054380;28;19911;-67
2024/03/25 03:55:17;;;;;;;;;;;4.50;99.90;;;;;;5054336;28;19943;-67
2024/03/25 03:57:42;;;;;;;;;;;4.50;99.90;;;;;;5053931;28;19904;-67
2024/03/25 04:00:09;;;;;;;;;;;4.50;99.90;;;;;;5054198;28;19916;-68
2024/03/25 04:02:34;;;;;;;;;;;4.60;99.90;;;;;;5054027;28;19905;-68
2024/03/25 04:05:00;;;;;;;;;;;4.50;99.90;;;;;;5054173;28;19915;-67
2024/03/25 04:07:28;;;;;;;;;;;4.40;99.90;;;;;;5053736;28;19908;-67
2024/03/25 04:09:54;;;;;;;;;;;4.50;99.90;;;;;;5054042;28;19911;-68
2024/03/25 04:12:19;;;;;;;;;;;4.50;99.90;;;;;;5053991;28;19995;-67
2024/03/25 04:14:49;;;;;;;;;;;4.50;99.90;;;;;;5054009;28;20360;-67
2024/03/25 04:17:14;;;;;;;;;;;4.50;99.90;;;;;;5053466;28;19929;-67
2024/03/25 04:19:40;;;;;;;;;;;4.40;99.90;;;;;;5053773;28;19912;-68
2024/03/25 04:22:07;;;;;;;;;;;4.40;99.90;;;;;;5053854;28;20276;-67
2024/03/25 04:24:34;;;;;;;;;;;4.30;99.90;;;;;;5053703;28;19911;-67
2024/03/25 04:26:59;;;;;;;;;;;4.40;99.90;;;;;;5053444;28;19904;-67
2024/03/25 04:29:25;;;;;;;;;;;4.30;99.90;;;;;;5053556;28;20476;-67
2024/03/25 04:31:51;;;;;;;;;;;4.30;99.90;;;;;;5053585;28;19908;-67
2024/03/25 04:34:16;;;;;;;;;;;4.30;99.90;;;;;;5053503;28;19912;-67
2024/03/25 04:36:42;;;;;;;;;;;4.30;99.90;;;;;;5053196;28;20007;-67
2024/03/25 04:39:08;;;;;;;;;;;4.30;99.90;;;;;;5053442;28;19905;-68
2024/03/25 04:41:33;;;;;;;;;;;4.30;99.90;;;;;;5053426;28;19905;-67
2024/03/25 04:43:59;;;;;;;;;;;4.30;99.90;;;;;;5053431;28;19930;-67
2024/03/25 04:46:24;;;;;;;;;;;4.20;99.90;;;;;;5053045;28;19904;-67
2024/03/25 04:48:50;;;;;;;;;;;4.30;99.90;;;;;;5053112;28;19971;-67
2024/03/25 04:51:15;;;;;;;;;;;4.20;99.90;;;;;;5053449;28;19951;-67
2024/03/25 04:53:41;;;;;;;;;;;4.20;99.90;;;;;;5053143;28;19909;-67
2024/03/25 04:56:06;;;;;;;;;;;4.20;99.90;;;;;;5052889;28;19904;-67
2024/03/25 04:58:32;;;;;;;;;;;4.20;99.90;;;;;;5052991;28;19911;-67
2024/03/25 05:00:57;;;;;;;;;;;4.30;99.90;;;;;;5053036;28;19905;-66
2024/03/25 05:03:23;;;;;;;;;;;4.40;99.90;;;;;;5052577;28;19911;-66
2024/03/25 05:05:48;;;;;;;;;;;4.40;99.90;;;;;;5053094;28;20419;-67
2024/03/25 05:08:14;;;;;;;;;;;4.00;99.90;;;;;;5052813;28;20007;-67
2024/03/25 05:10:39;;;;;;;;;;;4.40;99.90;;;;;;5052915;28;19905;-67
2024/03/25 05:13:05;;;;;;;;;;;4.40;99.90;;;;;;5052854;28;19904;-67
2024/03/25 05:15:30;;;;;;;;;;;4.40;99.90;;;;;;5052806;28;19987;-67
2024/03/25 05:17:56;;;;;;;;;;;4.40;99.90;;;;;;5052300;28;19920;-66
2024/03/25 05:20:21;;;;;;;;;;;4.30;99.90;;;;;;5052733;28;19912;-67
2024/03/25 05:22:47;;;;;;;;;;;4.30;99.90;;;;;;5052678;28;19905;-65
2024/03/25 05:25:12;;;;;;;;;;;4.20;99.90;;;;;;5052725;28;19912;-66
2024/03/25 05:27:38;;;;;;;;;;;4.10;99.90;;;;;;5052223;28;20015;-66
2024/03/25 05:30:04;;;;;;;;;;;4.10;99.90;;;;;;5052541;28;20379;-66
2024/03/25 05:32:29;;;;;;;;;;;4.00;99.90;;;;;;5052405;28;19948;-66
2024/03/25 05:34:54;;;;;;;;;;;4.00;99.90;;;;;;5052434;28;19904;-66
2024/03/25 05:37:20;;;;;;;;;;;3.90;99.90;;;;;;5052675;28;20322;-67
2024/03/25 05:39:45;;;;;;;;;;;3.90;99.90;;;;;;5053280;28;19991;-66
2024/03/25 05:42:11;;;;;;;;;;;3.90;99.90;;;;;;5053394;28;19999;-67
2024/03/25 05:44:36;;;;;;;;;;;3.90;99.90;;;;;;5053344;28;19909;-67
2024/03/25 05:47:02;;;;;;;;;;;3.90;99.90;;;;;;5053319;28;19966;-67
2024/03/25 05:49:28;;;;;;;;;;;3.70;99.90;;;;;;5053175;28;19995;-67
2024/03/25 05:51:53;;;;;;;;;;;3.60;99.90;;;;;;5053074;28;19904;-67
2024/03/25 05:54:18;;;;;;;;;;;3.70;99.90;;;;;;5052922;28;19962;-67
2024/03/25 05:56:44;;;;;;;;;;;3.50;99.90;;;;;;5053086;28;19904;-66
2024/03/25 05:59:09;;;;;;;;;;;3.40;99.90;;;;;;5053033;28;19904;-67
2024/03/25 06:01:37;;;;;;;;;;;3.50;99.90;;;;;;5053082;28;19991;-67
2024/03/25 06:04:03;;;;;;;;;;;3.40;99.90;;;;;;5053260;28;19912;-66
2024/03/25 06:06:28;;;;;;;;;;;3.40;99.90;;;;;;5052557;28;19983;-66
2024/03/25 06:08:54;;;;;;;;;;;3.50;99.90;;;;;;5052733;28;19974;-67
2024/03/25 06:11:19;;;;;;;;;;;3.60;99.90;;;;;;5052887;28;19991;-67
2024/03/25 06:13:48;;;;;;;;;;;3.70;99.90;;;;;;5052793;28;19929;-66
2024/03/25 06:16:14;;;;;;;;;;;3.70;99.90;;;;;;5055846;28;20360;-67
2024/03/25 06:18:40;;;;;;;;;;;3.80;99.90;;;;;;5056863;28;19916;-68
2024/03/25 06:21:05;;;;;;;;;;;3.80;99.90;;;;;;5057320;28;19912;-66
2024/03/25 06:23:31;;;;;;;;;;;3.90;99.90;;;;;;5057045;28;19911;-67
2024/03/25 06:25:57;;;;;;;;;;;3.90;99.90;;;;;;5056563;28;20319;-66
2024/03/25 06:28:23;;;;;;;;;;;3.90;99.90;;;;;;5056835;28;19919;-67
2024/03/25 06:36:18;;;;;;;;;;;4.20;99.90;;;;;;5056805;28;19911;-66
2024/03/25 06:38:43;;;;;;;;;;;4.30;99.90;;;;;;5056715;28;19909;-67
2024/03/25 06:41:08;;;;;;;;;;;4.40;99.90;;;;;;5056772;28;20274;-67
2024/03/25 06:43:34;;;;;;;;;;;4.60;99.90;;;;;;5056333;28;19989;-67
2024/03/25 06:46:00;;;;;;;;;;;4.70;99.90;;;;;;5056394;28;19905;-67
2024/03/25 06:48:25;;;;;;;;;;;4.70;99.90;;;;;;5055884;28;19919;-66
2024/03/25 06:50:57;;;;;;;;;;;4.80;99.90;;;;;;5055508;28;19904;-65
2024/03/25 06:53:23;;;;;;;;;;;4.80;99.90;;;;;;5055467;28;19905;-66
2024/03/25 06:55:52;;;;;;;;;;;4.80;99.90;;;;;;5055464;28;19909;-65
2024/03/25 06:58:19;;;;;;;;;;;4.80;99.90;;;;;;5055373;28;19912;-66
2024/03/25 07:00:44;;;;;;;;;;;4.90;99.90;;;;;;5055344;28;19912;-65
2024/03/25 07:03:10;;;;;;;;;;;4.90;99.90;;;;;;5055313;28;19904;-65
2024/03/25 07:05:35;;;;;;;;;;;5.00;99.90;;;;;;5055294;28;19905;-65
2024/03/25 07:08:00;;;;;;;;;;;5.00;99.90;;;;;;5054778;28;20000;-65
2024/03/25 07:10:26;;;;;;;;;;;5.00;99.90;;;;;;5055251;28;19958;-65
2024/03/25 07:12:51;;;;;;;;;;;5.10;99.90;;;;;;5055110;28;19948;-65
2024/03/25 07:15:17;;;;;;;;;;;5.20;99.90;;;;;;5055054;28;19973;-65
2024/03/25 07:17:42;;;;;;;;;;;5.20;99.90;;;;;;5054621;28;19916;-65
2024/03/25 07:20:08;;;;;;;;;;;5.30;99.90;;;;;;5055017;28;20401;-66
2024/03/25 07:22:34;;;;;;;;;;;5.30;99.90;;;;;;5054839;28;19905;-66
2024/03/25 07:24:59;;;;;;;;;;;5.30;99.90;;;;;;5054858;28;19991;-67
2024/03/25 07:27:24;;;;;;;;;;;5.40;99.90;;;;;;5054036;28;19912;-65
2024/03/25 07:29:51;;;;;;;;;;;5.40;99.90;;;;;;5054723;28;19966;-66
2024/03/25 07:32:16;;;;;;;;;;;5.50;99.90;;;;;;5054756;28;20418;-66
2024/03/25 07:34:42;;;;;;;;;;;5.60;99.90;;;;;;5054724;28;19905;-66
2024/03/25 07:37:07;;;;;;;;;;;5.80;99.90;;;;;;5054350;28;19905;-65
2024/03/25 07:39:33;;;;;;;;;;;5.70;99.90;;;;;;5053373;28;19905;-66
2024/03/25 07:41:59;;;;;;;;;;;5.80;99.90;;;;;;5055100;28;20003;-66
2024/03/25 07:44:24;;;;;;;;;;;6.00;99.90;;;;;;5055798;28;19952;-66
2024/03/25 07:46:50;;;;;;;;;;;6.10;99.90;;;;;;5055672;28;19911;-67
2024/03/25 07:49:16;;;;;;;;;;;6.20;99.90;;;;;;5055367;28;19908;-65
2024/03/25 07:51:41;;;;;;;;;;;6.30;99.90;;;;;;5054419;28;20372;-66
2024/03/25 07:54:07;;;;;;;;;;;6.40;99.90;;;;;;5054666;28;19905;-66
2024/03/25 07:56:36;;;;;;;;;;;6.50;99.90;;;;;;5054140;28;19905;-66
2024/03/25 07:59:02;;;;;;;;;;;6.60;99.90;;;;;;5054196;28;19911;-65
2024/03/25 08:01:28;;;;;;;;;;;6.80;99.90;;;;;;5054321;28;20119;-66
2024/03/25 08:03:54;;;;;;;;;;;6.80;99.90;;;;;;5053763;28;19992;-67
2024/03/25 08:06:21;;;;;;;;;;;6.90;99.90;;;;;;5053450;28;20376;-67
2024/03/25 08:08:47;;;;;;;;;;;6.90;99.90;;;;;;5053463;28;19908;-67
2024/03/25 08:11:12;;;;;;;;;;;7.10;99.90;;;;;;5053559;28;19908;-67
2024/03/25 08:13:38;;;;;;;;;;;7.20;99.90;;;;;;5053656;28;20301;-67
2024/03/25 08:16:03;;;;;;;;;;;7.20;99.90;;;;;;5053231;28;20357;-67
2024/03/25 08:18:29;;;;;;;;;;;7.30;99.90;;;;;;5053839;28;19913;-66
2024/03/25 08:20:54;;;;;;;;;;;7.40;99.90;;;;;;5053882;28;19992;-68
2024/03/25 08:23:20;;;;;;;;;;;7.40;99.90;;;;;;5053811;28;20418;-67
2024/03/25 08:25:45;;;;;;;;;;;7.50;99.90;;;;;;5053762;28;19905;-67
2024/03/25 08:28:11;;;;;;;;;;;7.60;99.90;;;;;;5053308;28;19916;-66
2024/03/25 08:30:36;;;;;;;;;;;7.60;99.90;;;;;;5053295;28;20399;-67
2024/03/25 08:33:02;;;;;;;;;;;7.70;99.90;;;;;;5053480;28;19905;-67
2024/03/25 08:35:27;;;;;;;;;;;7.80;99.90;;;;;;5053522;28;20269;-67
2024/03/25 08:37:53;;;;;;;;;;;7.90;99.20;;;;;;5052435;28;20352;-67
2024/03/25 08:40:18;;;;;;;;;;;7.80;99.90;;;;;;5053475;28;19915;-67
2024/03/25 08:42:44;;;;;;;;;;;8.00;93.80;;;;;;5053358;28;19904;-67
2024/03/25 08:45:10;;;;;;;;;;;8.10;98.80;;;;;;5053394;28;20407;-66
2024/03/25 08:47:35;;;;;;;;;;;8.20;97.60;;;;;;5053032;28;19908;-66
2024/03/25 08:50:01;;;;;;;;;;;8.30;96.70;;;;;;5053339;28;19905;-67
2024/03/25 08:52:26;;;;;;;;;;;8.40;82.30;;;;;;5053243;28;19908;-67
2024/03/25 08:54:52;;;;;;;;;;;8.30;79.50;;;;;;5053137;28;19909;-67
2024/03/25 08:57:17;;;;;;;;;;;8.40;83.20;;;;;;5052861;28;19904;-66
2024/03/25 08:59:43;;;;;;;;;;;8.60;74.40;;;;;;5053159;28;19991;-68
2024/03/25 09:02:08;;;;;;;;;;;8.60;81.50;;;;;;5053050;28;19932;-67
2024/03/25 09:04:34;;;;;;;;;;;8.70;76.20;;;;;;5053016;28;19944;-67
2024/03/25 09:06:59;;;;;;;;;;;8.90;79.70;;;;;;5052631;28;19912;-67
2024/03/25 09:12:09;;;;;;;;;;;8.90;48.90;;;;;;5052965;28;20390;-67
2024/03/25 09:14:34;;;;;;;;;;;9.00;38.70;;;;;;5052854;28;19905;-67
2024/03/25 09:17:00;;;;;;;;;;;9.00;54.90;;;;;;5052325;28;20340;-66
2024/03/25 09:19:26;;;;;;;;;;;9.30;42.30;;;;;;5052853;28;20319;-68
2024/03/25 09:21:51;;;;;;;;;;;9.30;28.60;;;;;;5052755;28;19948;-68
2024/03/25 09:24:17;;;;;;;;;;;9.40;20.30;;;;;;5052680;28;19936;-67
2024/03/25 09:26:43;;;;;;;;;;;9.40;30.20;;;;;;5052388;28;20411;-67
2024/03/25 09:29:08;;;;;;;;;;;9.50;33.30;;;;;;5052479;28;19913;-67
2024/03/25 09:31:34;;;;;;;;;;;9.70;34.40;;;;;;5052587;28;19966;-68
2024/03/25 09:33:59;;;;;;;;;;;9.70;20.30;;;;;;5052512;28;19904;-68
2024/03/25 09:36:25;;;;;;;;;;;9.80;20.70;;;;;;5052288;28;19950;-68
2024/03/25 09:38:52;;;;;;;;;;;9.90;21.00;;;;;;5052414;28;20353;-67
2024/03/25 09:41:18;;;;;;;;;;;10.00;28.70;;;;;;5052446;28;20448;-67
2024/03/25 09:43:46;;;;;;;;;;;10.20;23.50;;;;;;5052391;28;19999;-68
2024/03/25 09:46:11;;;;;;;;;;;10.30;24.40;;;;;;5052114;28;20498;-67
2024/03/25 09:48:37;;;;;;;;;;;10.40;20.00;;;;;;5052132;28;20015;-67
2024/03/25 09:51:04;;;;;;;;;;;10.40;18.00;;;;;;5052313;28;19987;-67
2024/03/25 09:53:29;;;;;;;;;;;10.50;15.20;;;;;;5052334;28;20343;-68
2024/03/25 09:55:56;;;;;;;;;;;10.60;13.80;;;;;;5052038;28;19963;-67
2024/03/25 09:58:22;;;;;;;;;;;10.80;7.30;;;;;;5052234;28;19912;-67
2024/03/25 10:00:47;;;;;;;;;;;10.90;11.70;;;;;;5052255;28;19904;-67
2024/03/25 10:03:14;;;;;;;;;;;11.00;3.50;;;;;;5052115;28;20357;-68
2024/03/25 10:05:40;;;;;;;;;;;10.80;1.00;;;;;;5052474;28;19909;-68
2024/03/25 10:08:05;;;;;;;;;;;10.90;1.00;;;;;;5051749;28;19978;-68
2024/03/25 10:10:31;;;;;;;;;;;11.10;1.00;;;;;;5052100;28;20364;-67
2024/03/25 10:12:56;;;;;;;;;;;11.20;1.00;;;;;;5052034;28;19912;-67
2024/03/25 10:15:22;;;;;;;;;;;11.20;1.00;;;;;;5052041;28;19905;-67
2024/03/25 10:17:52;;;;;;;;;;;11.10;1.00;;;;;;5051785;28;19916;-67
2024/03/25 10:20:18;;;;;;;;;;;11.10;1.00;;;;;;5052173;28;20323;-68
2024/03/25 10:22:44;;;;;;;;;;;11.10;1.00;;;;;;5052335;28;19912;-67
2024/03/25 10:25:19;;;;;;;;;;;11.10;1.00;;;;;;5051648;28;19905;-67
2024/03/25 10:27:52;;;;;;;;;;;11.10;1.00;;;;;;5052652;28;19913;-68
2024/03/25 10:30:19;;;;;;;;;;;11.20;1.00;;;;;;5052510;28;19996;-67
2024/03/25 10:32:44;;;;;;;;;;;11.40;1.00;;;;;;5052816;28;19909;-67
2024/03/25 10:35:10;;;;;;;;;;;11.30;1.00;;;;;;5052455;28;19958;-68
2024/03/25 10:37:35;;;;;;;;;;;11.20;1.00;;;;;;5050275;28;20360;-68
2024/03/25 10:40:01;;;;;;;;;;;11.30;1.00;;;;;;5051828;28;19905;-68
2024/03/25 10:42:26;;;;;;;;;;;11.30;1.00;;;;;;5051741;28;19905;-67
2024/03/25 10:44:52;;;;;;;;;;;11.40;1.00;;;;;;5051814;28;19908;-67
2024/03/25 10:47:24;;;;;;;;;;;11.70;1.00;;;;;;5051285;28;19913;-68
2024/03/25 10:49:50;;;;;;;;;;;11.80;1.00;;;;;;5048348;28;20562;-67
2024/03/25 10:52:17;;;;;;;;;;;12.00;1.00;;;;;;5051548;28;19904;-67
2024/03/25 10:54:43;;;;;;;;;;;12.20;1.00;;;;;;5051617;28;20364;-66
2024/03/25 10:57:09;;;;;;;;;;;12.20;1.00;;;;;;5050723;28;19909;-66
2024/03/25 10:59:37;;;;;;;;;;;12.10;1.00;;;;;;5051636;28;20261;-67
2024/03/25 11:02:03;;;;;;;;;;;12.20;1.00;;;;;;5054262;28;19950;-66
2024/03/25 11:04:30;;;;;;;;;;;12.40;1.00;;;;;;5054661;28;21307;-67
2024/03/25 11:07:06;;;;;;;;;;;12.60;1.00;;;;;;5052382;28;20008;-67
2024/03/25 11:09:31;;;;;;;;;;;12.60;1.00;;;;;;5055108;28;19915;-66
2024/03/25 11:11:58;;;;;;;;;;;12.70;1.00;;;;;;5054642;28;20420;-66
2024/03/25 11:14:27;;;;;;;;;;;12.80;1.00;;;;;;5055219;28;19908;-66
2024/03/25 11:16:53;;;;;;;;;;;12.80;1.00;;;;;;5054863;28;20007;-66
2024/03/25 11:19:20;;;;;;;;;;;13.00;1.00;;;;;;5054476;28;20399;-66
2024/03/25 11:21:46;;;;;;;;;;;12.90;1.00;;;;;;5052934;28;19962;-67
2024/03/25 11:24:12;;;;;;;;;;;13.00;1.00;;;;;;5053818;28;20394;-66
2024/03/25 11:26:43;;;;;;;;;;;13.10;1.00;;;;;;5052388;28;19912;-66
2024/03/25 11:29:08;;;;;;;;;;;13.10;1.00;;;;;;5053830;28;19934;-67
2024/03/25 11:31:35;;;;;;;;;;;13.20;1.00;;;;;;5053831;28;19905;-67
2024/03/25 11:34:08;;;;;;;;;;;13.30;1.00;;;;;;5053310;28;19915;-67
2024/03/25 11:36:33;;;;;;;;;;;13.20;1.00;;;;;;5052967;28;19923;-67
2024/03/25 11:39:00;;;;;;;;;;;13.20;1.00;;;;;;5053458;28;20491;-67
2024/03/25 11:41:26;;;;;;;;;;;13.20;1.00;;;;;;5053053;28;19904;-66
2024/03/25 11:43:51;;;;;;;;;;;13.30;1.00;;;;;;5053652;28;19999;-66
2024/03/25 11:46:18;;;;;;;;;;;13.50;1.00;;;;;;5052750;28;20291;-65
2024/03/25 11:48:44;;;;;;;;;;;13.90;1.00;;;;;;5052989;28;19908;-67
2024/03/25 11:51:11;;;;;;;;;;;14.30;1.00;;;;;;5054066;28;20422;-66
2024/03/25 11:53:36;;;;;;;;;;;14.90;1.00;;;;;;5053971;28;19974;-66
2024/03/25 11:56:02;;;;;;;;;;;15.60;1.00;;;;;;5053550;28;19912;-68
2024/03/25 11:58:28;;;;;;;;;;;16.30;1.00;;;;;;5054175;28;19959;-66
2024/03/25 12:00:54;;;;;;;;;;;17.00;1.00;;;;;;5054073;28;19904;-66
2024/03/25 12:03:19;;;;;;;;;;;17.60;1.00;;;;;;5053513;28;20276;-67
2024/03/25 12:05:45;;;;;;;;;;;18.40;1.00;;;;;;5054134;28;19975;-66
2024/03/25 12:08:11;;;;;;;;;;;19.10;1.00;;;;;;5053471;28;20538;-66
2024/03/25 12:13:21;;;;;;;;;;;20.40;1.00;;;;;;5052982;28;19911;-66
2024/03/25 12:15:47;;;;;;;;;;;20.70;1.00;;;;;;5053843;28;20288;-66
2024/03/25 12:18:13;;;;;;;;;;;20.60;1.00;;;;;;5053027;28;19919;-67
2024/03/25 12:20:38;;;;;;;;;;;20.70;1.00;;;;;;5053792;28;20376;-66
2024/03/25 12:23:04;;;;;;;;;;;20.60;1.00;;;;;;5053531;28;19905;-66
2024/03/25 12:25:30;;;;;;;;;;;20.00;1.00;;;;;;5053293;28;20365;-66
2024/03/25 12:27:55;;;;;;;;;;;20.00;1.00;;;;;;5053380;28;19954;-67
2024/03/25 12:30:21;;;;;;;;;;;20.30;1.00;;;;;;5053574;28;20432;-66
2024/03/25 12:32:46;;;;;;;;;;;21.10;1.00;;;;;;5053128;28;19905;-67
2024/03/25 12:35:13;;;;;;;;;;;21.40;1.00;;;;;;5053531;28;19951;-67
2024/03/25 12:37:42;;;;;;;;;;;21.70;1.00;;;;;;5053042;28;19905;-67
2024/03/25 12:40:10;;;;;;;;;;;22.00;1.00;;;;;;5053164;28;19904;-68
2024/03/25 12:42:36;;;;;;;;;;;22.10;1.00;;;;;;5053434;28;20387;-67
2024/03/25 12:45:03;;;;;;;;;;;21.90;1.00;;;;;;5053367;28;19909;-66
2024/03/25 12:47:28;;;;;;;;;;;22.00;1.00;;;;;;5052378;28;19999;-66
2024/03/25 12:49:54;;;;;;;;;;;21.70;1.00;;;;;;5053233;28;20378;-68
2024/03/25 12:52:19;;;;;;;;;;;21.40;1.00;;;;;;5053017;28;20391;-66
2024/03/25 12:54:45;;;;;;;;;;;21.40;1.00;;;;;;5052804;28;19958;-67
2024/03/25 12:57:11;;;;;;;;;;;20.90;1.00;;;;;;5059339;28;19911;-68
2024/03/25 12:59:36;;;;;;;;;;;21.90;1.00;;;;;;5060302;28;19972;-69
2024/03/25 13:02:02;;;;;;;;;;;22.50;1.00;;;;;;5059004;28;19935;-67
2024/03/25 13:04:28;;;;;;;;;;;23.30;1.00;;;;;;5059235;28;19905;-70
2024/03/25 13:06:53;;;;;;;;;;;23.80;1.00;;;;;;5058094;28;19908;-69
2024/03/25 13:09:19;;;;;;;;;;;24.00;1.00;;;;;;5059307;28;20007;-69
2024/03/25 13:11:45;;;;;;;;;;;23.60;1.00;;;;;;5060561;28;19983;-69
2024/03/25 13:14:13;;;;;;;;;;;23.60;1.00;;;;;;5059769;28;19905;-68
2024/03/25 13:16:39;;;;;;;;;;;22.70;1.00;;;;;;5060073;28;19905;-69
2024/03/25 13:19:05;;;;;;;;;;;22.90;1.00;;;;;;5059416;28;20054;-67
2024/03/25 13:21:30;;;;;;;;;;;23.50;1.00;;;;;;5059513;28;20317;-68
2024/03/25 13:23:56;;;;;;;;;;;23.50;1.00;;;;;;5059136;28;19909;-69
2024/03/25 13:26:22;;;;;;;;;;;23.80;1.00;;;;;;5058570;28;19904;-69
2024/03/25 13:28:47;;;;;;;;;;;24.20;1.00;;;;;;5059355;28;19940;-69
2024/03/25 13:31:13;;;;;;;;;;;23.50;1.00;;;;;;5058635;28;19958;-68
2024/03/25 13:33:39;;;;;;;;;;;23.00;1.00;;;;;;5056868;28;19904;-68
2024/03/25 13:36:06;;;;;;;;;;;22.50;1.00;;;;;;5056365;28;19905;-70
2024/03/25 13:38:32;;;;;;;;;;;22.40;1.00;;;;;;5056778;28;19904;-68
2024/03/25 13:40:58;;;;;;;;;;;22.70;1.00;;;;;;5059485;28;19909;-68
2024/03/25 13:43:23;;;;;;;;;;;23.30;1.00;;;;;;5060576;28;19905;-68
2024/03/25 13:45:49;;;;;;;;;;;23.70;1.00;;;;;;5056231;28;19911;-67
2024/03/25 13:48:18;;;;;;;;;;;22.40;1.00;;;;;;5054657;28;19909;-69
2024/03/25 13:50:43;;;;;;;;;;;21.90;1.00;;;;;;5055611;28;19909;-68
2024/03/25 13:53:09;;;;;;;;;;;21.90;1.00;;;;;;5057268;28;20258;-68
2024/03/25 13:55:34;;;;;;;;;;;22.50;1.00;;;;;;5057864;28;19905;-69
2024/03/25 13:58:00;;;;;;;;;;;22.90;1.00;;;;;;5055827;28;19904;-69
2024/03/25 14:00:28;;;;;;;;;;;22.00;1.00;;;;;;5054086;28;19905;-68
2024/03/25 14:02:54;;;;;;;;;;;21.80;1.00;;;;;;5056445;28;20003;-69
2024/03/25 14:05:20;;;;;;;;;;;22.30;1.00;;;;;;5055920;28;19948;-69
2024/03/25 14:07:46;;;;;;;;;;;23.00;1.00;;;;;;5052315;28;19913;-68
2024/03/25 14:10:11;;;;;;;;;;;23.30;1.00;;;;;;5052057;28;19904;-68
2024/03/25 14:12:37;;;;;;;;;;;23.00;1.00;;;;;;5052264;28;19920;-69
2024/03/25 14:15:03;;;;;;;;;;;22.80;1.00;;;;;;5052254;28;19958;-69
2024/03/25 14:17:29;;;;;;;;;;;22.40;1.00;;;;;;5051169;28;19955;-69
2024/03/25 14:19:55;;;;;;;;;;;22.80;1.00;;;;;;5052111;28;19955;-68
2024/03/25 14:22:21;;;;;;;;;;;23.10;1.00;;;;;;5051877;28;19905;-68
2024/03/25 14:24:46;;;;;;;;;;;24.00;1.00;;;;;;5052109;28;19912;-68
2024/03/25 14:27:12;;;;;;;;;;;24.60;1.00;;;;;;5050190;28;19905;-68
2024/03/25 14:29:38;;;;;;;;;;;24.60;1.00;;;;;;5053144;28;19920;-68
2024/03/25 14:32:03;;;;;;;;;;;24.60;1.00;;;;;;5052084;28;19905;-68